createdAt,value
2024-04-22T00:01:01.083Z,56.51
2024-04-22T00:03:34.456Z,56.60
2024-04-22T00:06:01.891Z,56.95
2024-04-22T00:08:32.423Z,56.79
2024-04-22T00:11:07.166Z,56.86
2024-04-22T00:13:37.818Z,56.73
2024-04-22T00:16:08.327Z,56.99
2024-04-22T00:18:38.083Z,56.95
2024-04-22T00:21:05.739Z,56.82
2024-04-22T00:23:35.468Z,56.63
2024-04-22T00:26:02.732Z,56.83
2024-04-22T00:28:32.728Z,56.86
2024-04-22T00:31:00.675Z,57.18
2024-04-22T00:33:30.520Z,57.03
2024-04-22T00:36:04.211Z,57.45
2024-04-22T00:38:34.532Z,57.45
2024-04-22T00:41:01.988Z,57.76
2024-04-22T00:43:31.793Z,57.54
2024-04-22T00:46:01.870Z,57.22
2024-04-22T00:48:28.928Z,57.47
2024-04-22T00:51:02.889Z,57.98
2024-04-22T00:53:31.010Z,57.68
2024-04-22T00:56:01.106Z,57.89
2024-04-22T00:58:30.388Z,57.79
2024-04-22T01:01:01.573Z,57.99
2024-04-22T01:03:29.075Z,58.14
2024-04-22T01:05:59.553Z,57.87
2024-04-22T01:08:26.681Z,58.10
2024-04-22T01:10:57.913Z,58.41
2024-04-22T01:13:25.342Z,58.25
2024-04-22T01:15:57.951Z,58.43
2024-04-22T01:18:26.160Z,58.51
2024-04-22T01:20:56.286Z,58.46
2024-04-22T01:23:23.534Z,58.70
2024-04-22T01:25:58.601Z,58.83
2024-04-22T01:28:25.851Z,59.04
2024-04-22T01:30:55.878Z,59.27
2024-04-22T01:33:23.045Z,59.50
2024-04-22T01:35:52.866Z,59.31
2024-04-22T01:38:19.900Z,59.33
2024-04-22T01:40:49.755Z,59.19
2024-04-22T01:43:16.818Z,59.35
2024-04-22T01:45:46.521Z,59.31
2024-04-22T01:48:13.622Z,59.34
2024-04-22T01:50:43.388Z,59.80
2024-04-22T01:53:10.744Z,59.74
2024-04-22T01:55:41.846Z,59.86
2024-04-22T01:58:08.959Z,59.99
2024-04-22T02:00:38.885Z,59.98
2024-04-22T02:03:06.266Z,60.30
2024-04-22T02:05:36.070Z,60.28
2024-04-22T02:08:03.563Z,60.66
2024-04-22T02:10:33.599Z,60.61
2024-04-22T02:13:02.560Z,61.10
2024-04-22T02:15:36.099Z,61.42
2024-04-22T02:18:03.466Z,61.28
2024-04-22T02:20:33.891Z,61.55
2024-04-22T02:23:01.957Z,61.39
2024-04-22T02:25:31.955Z,61.09
2024-04-22T02:28:02.152Z,61.21
2024-04-22T02:30:32.170Z,61.09
2024-04-22T02:32:59.247Z,60.64
2024-04-22T02:35:28.948Z,61.13
2024-04-22T02:37:55.925Z,61.13
2024-04-22T02:40:25.749Z,60.95
2024-04-22T02:42:52.760Z,60.44
2024-04-22T02:45:24.377Z,60.37
2024-04-22T02:47:51.849Z,60.85
2024-04-22T02:50:21.543Z,61.17
2024-04-22T02:52:48.711Z,60.64
2024-04-22T02:55:18.832Z,60.87
2024-04-22T02:57:45.880Z,60.53
2024-04-22T03:00:15.801Z,61.31
2024-04-22T03:02:43.029Z,60.95
2024-04-22T03:05:12.863Z,61.04
2024-04-22T03:07:45.586Z,61.19
2024-04-22T03:10:15.593Z,61.03
2024-04-22T03:12:48.118Z,60.76
2024-04-22T03:15:19.143Z,61.00
2024-04-22T03:17:46.297Z,60.91
2024-04-22T03:20:16.196Z,60.73
2024-04-22T03:22:43.256Z,60.42
2024-04-22T03:25:12.963Z,60.58
2024-04-22T03:27:40.003Z,60.52
2024-04-22T03:30:14.834Z,60.43
2024-04-22T03:32:41.960Z,60.80
2024-04-22T03:35:14.722Z,60.91
2024-04-22T03:37:45.564Z,60.77
2024-04-22T03:40:15.346Z,61.39
2024-04-22T03:42:45.119Z,61.48
2024-04-22T03:45:12.185Z,61.26
2024-04-22T03:47:58.076Z,61.15
2024-04-22T03:50:33.182Z,61.07
2024-04-22T03:53:03.404Z,60.77
2024-04-22T03:55:33.291Z,60.54
2024-04-22T03:58:03.701Z,60.85
2024-04-22T04:00:33.835Z,60.73
2024-04-22T04:03:03.711Z,60.35
2024-04-22T04:05:35.878Z,60.41
2024-04-22T04:08:09.213Z,60.36
2024-04-22T04:10:38.715Z,60.38
2024-04-22T04:16:07.297Z,60.43
2024-04-22T04:18:37.510Z,60.80
2024-04-22T04:21:04.974Z,60.93
2024-04-22T04:23:36.182Z,60.70
2024-04-22T04:26:03.318Z,60.99
2024-04-22T04:28:33.270Z,61.32
2024-04-22T04:31:05.011Z,61.23
2024-04-22T04:33:34.936Z,61.30
2024-04-22T04:36:02.413Z,60.88
2024-04-22T04:38:32.585Z,60.87
2024-04-22T04:41:02.540Z,60.71
2024-04-22T04:43:33.772Z,60.74
2024-04-22T04:46:01.349Z,60.74
2024-04-22T04:48:31.231Z,60.86
2024-04-22T04:51:01.328Z,60.47
2024-04-22T04:53:32.460Z,60.11
2024-04-22T04:55:59.610Z,60.07
2024-04-22T04:58:32.088Z,60.41
2024-04-22T05:00:59.528Z,60.29
2024-04-22T05:03:29.707Z,60.09
2024-04-22T05:06:01.415Z,59.66
2024-04-22T05:08:31.535Z,59.81
2024-04-22T05:11:04.233Z,59.76
2024-04-22T05:13:34.058Z,59.77
2024-04-22T05:16:01.184Z,59.98
2024-04-22T05:18:31.378Z,60.20
2024-04-22T05:20:58.774Z,60.46
2024-04-22T05:23:28.788Z,60.41
2024-04-22T05:25:56.208Z,60.56
2024-04-22T05:28:28.796Z,60.65
2024-04-22T05:30:58.905Z,60.72
2024-04-22T05:33:54.605Z,60.78
2024-04-22T05:36:27.574Z,60.64
2024-04-22T05:39:00.595Z,60.44
2024-04-22T05:41:30.603Z,60.13
2024-04-22T05:44:03.084Z,60.17
2024-04-22T05:46:32.973Z,60.07
2024-04-22T05:49:05.778Z,59.93
2024-04-22T05:51:35.986Z,59.55
2024-04-22T05:54:08.123Z,59.92
2024-04-22T05:56:37.992Z,60.00
2024-04-22T05:59:09.690Z,60.24
2024-04-22T06:01:40.470Z,60.58
2024-04-22T06:04:10.516Z,61.19
2024-04-22T06:06:41.097Z,60.96
2024-04-22T06:09:11.060Z,61.02
2024-04-22T06:11:48.623Z,61.06
2024-04-22T06:14:48.557Z,61.25
2024-04-22T06:17:32.727Z,61.08
2024-04-22T06:20:02.319Z,61.20
2024-04-22T06:22:34.047Z,61.00
2024-04-22T06:25:01.293Z,61.20
2024-04-22T06:27:31.420Z,61.31
2024-04-22T06:29:58.698Z,60.95
2024-04-22T06:32:28.988Z,60.85
2024-04-22T06:34:59.053Z,60.58
2024-04-22T06:37:26.208Z,60.33
2024-04-22T06:39:55.967Z,60.17
2024-04-22T06:42:23.188Z,60.00
2024-04-22T06:44:53.284Z,60.34
2024-04-22T06:47:20.737Z,59.97
2024-04-22T06:49:50.674Z,59.53
2024-04-22T06:52:18.272Z,59.74
2024-04-22T06:54:48.403Z,60.10
2024-04-22T06:57:19.739Z,60.39
2024-04-22T06:59:49.971Z,60.46
2024-04-22T07:02:20.364Z,59.92
2024-04-22T07:04:52.754Z,60.00
2024-04-22T07:07:22.871Z,60.14
2024-04-22T07:09:52.872Z,60.43
2024-04-22T07:12:19.945Z,60.28
2024-04-22T07:14:49.738Z,60.15
2024-04-22T07:17:18.402Z,59.57
2024-04-22T07:19:49.983Z,59.14
2024-04-22T07:22:20.224Z,58.19
2024-04-22T07:24:57.724Z,58.60
2024-04-22T07:27:35.717Z,58.60
2024-04-22T07:30:07.071Z,58.33
2024-04-22T07:32:34.684Z,58.63
2024-04-22T07:35:04.732Z,58.62
2024-04-22T07:37:52.519Z,58.59
2024-04-22T07:40:23.808Z,59.07
2024-04-22T07:42:51.397Z,59.20
2024-04-22T07:45:24.216Z,58.81
2024-04-22T07:47:54.126Z,59.02
2024-04-22T07:50:24.333Z,58.66
2024-04-22T07:52:52.661Z,58.41
2024-04-22T07:55:22.943Z,58.50
2024-04-22T07:57:52.369Z,58.28
2024-04-22T08:00:22.786Z,57.66
2024-04-22T08:02:50.316Z,57.93
2024-04-22T08:05:21.153Z,58.12
2024-04-22T08:07:57.964Z,58.29
2024-04-22T08:10:27.956Z,57.70
2024-04-22T08:12:55.226Z,57.16
2024-04-22T08:15:29.810Z,56.97
2024-04-22T08:17:56.872Z,56.89
2024-04-22T08:20:27.790Z,56.23
2024-04-22T08:22:54.964Z,56.22
2024-04-22T08:25:28.243Z,56.07
2024-04-22T08:27:55.588Z,55.61
2024-04-22T08:30:25.270Z,55.10
2024-04-22T08:32:52.490Z,54.75
2024-04-22T08:35:23.769Z,54.69
2024-04-22T08:37:53.336Z,54.27
2024-04-22T08:40:26.714Z,53.96
2024-04-22T08:42:54.782Z,53.60
2024-04-22T08:45:28.736Z,53.17
2024-04-22T08:48:00.274Z,53.79
2024-04-22T08:50:33.249Z,54.02
2024-04-22T08:53:04.201Z,54.34
2024-04-22T08:55:34.036Z,53.79
2024-04-22T08:58:01.137Z,53.11
2024-04-22T09:00:30.934Z,53.03
2024-04-22T09:02:58.041Z,53.01
2024-04-22T09:05:29.816Z,52.12
2024-04-22T09:07:59.922Z,51.76
2024-04-22T09:11:05.437Z,51.34
2024-04-22T09:13:21.920Z,51.91
2024-04-22T09:15:57.768Z,51.47
2024-04-22T09:18:30.721Z,50.81
2024-04-22T09:21:11.562Z,51.03
2024-04-22T09:23:39.345Z,51.16
2024-04-22T09:26:09.989Z,50.84
2024-04-22T09:28:40.969Z,50.38
2024-04-22T09:31:12.977Z,50.46
2024-04-22T09:33:44.519Z,50.29
2024-04-22T09:36:15.989Z,50.40
2024-04-22T09:38:51.975Z,50.92
2024-04-22T09:41:24.234Z,50.75
2024-04-22T09:43:57.830Z,50.46
2024-04-22T09:46:31.491Z,49.64
2024-04-22T09:49:00.935Z,49.18
2024-04-22T09:51:32.926Z,48.80
2024-04-22T09:54:00.141Z,49.13
2024-04-22T09:56:34.810Z,49.01
2024-04-22T09:59:04.689Z,48.60
2024-04-22T10:01:35.063Z,49.05
2024-04-22T10:04:02.792Z,48.43
2024-04-22T10:06:33.944Z,48.17
2024-04-22T10:09:01.448Z,48.44
2024-04-22T10:11:38.543Z,48.43
2024-04-22T10:14:18.295Z,48.68
2024-04-22T10:17:01.805Z,48.93
2024-04-22T10:19:30.691Z,48.65
2024-04-22T10:22:09.123Z,48.29
2024-04-22T10:24:41.127Z,48.75
2024-04-22T10:27:16.990Z,49.94
2024-04-22T10:29:44.250Z,49.72
2024-04-22T10:32:14.013Z,50.04
2024-04-22T10:34:45.748Z,49.77
2024-04-22T10:37:16.542Z,49.30
2024-04-22T10:39:50.064Z,49.48
2024-04-22T10:42:20.928Z,49.11
2024-04-22T10:44:48.301Z,49.21
2024-04-22T10:47:18.300Z,49.57
2024-04-22T10:49:52.642Z,49.82
2024-04-22T10:52:22.670Z,50.04
2024-04-22T10:54:53.528Z,49.96
2024-04-22T10:57:20.993Z,49.90
2024-04-22T10:59:58.295Z,49.63
2024-04-22T11:02:25.506Z,49.87
2024-04-22T11:04:56.047Z,49.54
2024-04-22T11:07:25.157Z,49.43
2024-04-22T11:09:55.162Z,49.26
2024-04-22T11:12:26.451Z,48.81
2024-04-22T11:15:00.718Z,48.82
2024-04-22T11:17:27.897Z,48.87
2024-04-22T11:19:57.889Z,48.74
2024-04-22T11:22:25.006Z,48.11
2024-04-22T11:24:57.670Z,47.99
2024-04-22T11:27:24.795Z,48.45
2024-04-22T11:29:56.955Z,48.76
2024-04-22T11:32:26.117Z,49.16
2024-04-22T11:34:55.997Z,48.93
2024-04-22T11:37:23.511Z,49.14
2024-04-22T11:39:54.065Z,49.13
2024-04-22T11:42:21.445Z,49.57
2024-04-22T11:44:54.122Z,49.72
2024-04-22T11:47:21.366Z,50.01
2024-04-22T11:49:51.775Z,49.76
2024-04-22T11:52:18.995Z,49.96
2024-04-22T11:54:51.388Z,49.34
2024-04-22T11:57:18.417Z,48.99
2024-04-22T11:59:48.105Z,49.39
2024-04-22T12:02:18.477Z,49.16
2024-04-22T12:04:48.822Z,49.77
2024-04-22T12:07:16.652Z,48.71
2024-04-22T12:09:46.323Z,49.11
2024-04-22T12:12:13.430Z,48.80
2024-04-22T12:14:43.042Z,49.24
2024-04-22T12:17:11.541Z,49.09
2024-04-22T12:19:41.325Z,49.41
2024-04-22T12:22:08.363Z,49.68
2024-04-22T12:24:40.903Z,49.42
2024-04-22T12:27:09.782Z,49.22
2024-04-22T12:29:40.919Z,49.48
2024-04-22T12:32:08.116Z,49.43
2024-04-22T12:34:37.908Z,49.41
2024-04-22T12:37:04.992Z,49.04
2024-04-22T12:39:39.966Z,48.56
2024-04-22T12:42:07.269Z,49.23
2024-04-22T12:44:39.254Z,49.31
2024-04-22T12:47:21.062Z,49.89
2024-04-22T12:50:06.780Z,49.43
2024-04-22T12:52:36.672Z,49.50
2024-04-22T12:55:09.240Z,49.36
2024-04-22T12:57:39.366Z,49.30
2024-04-22T13:00:14.283Z,49.41
2024-04-22T13:02:49.223Z,49.43
2024-04-22T13:05:19.306Z,49.72
2024-04-22T13:07:52.600Z,49.92
2024-04-22T13:10:22.501Z,50.22
2024-04-22T13:12:52.550Z,50.05
2024-04-22T13:15:19.775Z,49.80
2024-04-22T13:17:49.601Z,50.09
2024-04-22T13:20:19.554Z,50.33
2024-04-22T13:22:46.708Z,50.48
2024-04-22T13:25:16.464Z,50.59
2024-04-22T13:27:43.504Z,50.83
2024-04-22T13:30:15.263Z,50.55
2024-04-22T13:32:47.302Z,50.57
2024-04-22T13:35:14.762Z,51.17
2024-04-22T13:37:44.821Z,51.05
2024-04-22T13:40:11.955Z,50.77
2024-04-22T13:42:46.391Z,50.42
2024-04-22T13:45:16.074Z,50.83
2024-04-22T13:47:48.188Z,50.72
2024-04-22T13:50:15.308Z,51.06
2024-04-22T13:52:50.582Z,50.76
2024-04-22T13:55:17.743Z,50.65
2024-04-22T13:57:48.723Z,50.63
2024-04-22T14:00:16.050Z,50.59
2024-04-22T14:02:46.390Z,49.86
2024-04-22T14:05:14.878Z,49.70
2024-04-22T14:07:46.453Z,49.65
2024-04-22T14:12:43.802Z,49.22
2024-04-22T14:15:11.296Z,48.77
2024-04-22T14:17:44.449Z,48.53
2024-04-22T14:20:12.723Z,48.11
2024-04-22T14:22:42.397Z,48.10
2024-04-22T14:25:09.547Z,47.07
2024-04-22T14:27:39.241Z,47.78
2024-04-22T14:30:07.070Z,47.42
2024-04-22T14:32:37.252Z,47.37
2024-04-22T14:35:04.875Z,47.55
2024-04-22T14:37:35.976Z,47.90
2024-04-22T14:40:03.104Z,48.10
2024-04-22T14:42:34.579Z,48.19
2024-04-22T14:45:01.701Z,47.73
2024-04-22T14:47:31.886Z,47.95
2024-04-22T14:49:58.986Z,48.27
2024-04-22T14:52:28.693Z,48.56
2024-04-22T14:54:55.640Z,48.79
2024-04-22T14:57:25.396Z,48.00
2024-04-22T14:59:52.496Z,47.85
2024-04-22T15:02:29.797Z,47.39
2024-04-22T15:04:56.913Z,47.51
2024-04-22T15:07:30.258Z,47.67
2024-04-22T15:09:57.383Z,47.30
2024-04-22T15:12:29.212Z,47.85
2024-04-22T15:14:56.230Z,47.49
2024-04-22T15:17:26.166Z,47.20
2024-04-22T15:19:53.388Z,47.06
2024-04-22T15:22:23.154Z,46.91
2024-04-22T15:24:50.178Z,46.86
2024-04-22T15:27:24.809Z,46.83
2024-04-22T15:29:54.655Z,46.38
2024-04-22T15:32:24.615Z,46.59
2024-04-22T15:34:51.849Z,46.47
2024-04-22T15:37:21.691Z,46.92
2024-04-22T15:39:48.854Z,46.60
2024-04-22T15:42:18.554Z,46.81
2024-04-22T15:44:47.569Z,46.39
2024-04-22T15:47:21.144Z,46.19
2024-04-22T15:49:50.098Z,46.33
2024-04-22T15:52:19.992Z,46.39
2024-04-22T15:54:47.082Z,46.63
2024-04-22T15:57:19.857Z,46.74
2024-04-22T15:59:55.452Z,46.59
2024-04-22T16:02:32.435Z,46.24
2024-04-22T16:04:59.791Z,46.25
2024-04-22T16:07:35.889Z,46.19
2024-04-22T16:10:03.025Z,46.59
2024-04-22T16:12:33.132Z,46.25
2024-04-22T16:15:00.794Z,46.30
2024-04-22T16:17:32.050Z,46.16
2024-04-22T16:19:59.092Z,46.42
2024-04-22T16:22:28.843Z,46.41
2024-04-22T16:24:55.926Z,47.03
2024-04-22T16:27:25.685Z,46.97
2024-04-22T16:29:53.087Z,47.31
2024-04-22T16:32:22.839Z,47.54
2024-04-22T16:34:50.040Z,47.83
2024-04-22T16:37:20.011Z,48.02
2024-04-22T16:39:47.029Z,48.55
2024-04-22T16:42:17.291Z,49.09
2024-04-22T16:44:44.464Z,49.05
2024-04-22T16:47:14.367Z,49.43
2024-04-22T16:49:41.494Z,49.40
2024-04-22T16:52:13.537Z,49.41
2024-04-22T16:54:40.600Z,49.63
2024-04-22T16:57:11.942Z,49.79
2024-04-22T16:59:41.584Z,49.60
2024-04-22T17:02:13.003Z,49.90
2024-04-22T17:04:41.156Z,49.91
2024-04-22T17:07:11.118Z,49.82
2024-04-22T17:09:38.099Z,49.57
2024-04-22T17:12:08.156Z,49.54
2024-04-22T17:14:35.556Z,49.48
2024-04-22T17:17:07.845Z,49.27
2024-04-22T17:19:35.490Z,48.90
2024-04-22T17:22:05.378Z,48.77
2024-04-22T17:24:32.413Z,48.32
2024-04-22T17:27:03.016Z,48.53
2024-04-22T17:29:30.096Z,48.53
2024-04-22T17:31:59.801Z,48.66
2024-04-22T17:34:27.482Z,48.53
2024-04-22T17:37:02.743Z,48.82
2024-04-22T17:39:29.735Z,48.51
2024-04-22T17:42:08.742Z,48.19
2024-04-22T17:44:37.747Z,48.17
2024-04-22T17:47:10.185Z,48.17
2024-04-22T17:49:41.296Z,47.71
2024-04-22T17:52:11.115Z,46.24
2024-04-22T17:54:47.076Z,46.02
2024-04-22T17:57:18.400Z,44.99
2024-04-22T17:59:49.696Z,44.82
2024-04-22T18:02:22.312Z,43.75
2024-04-22T18:04:49.965Z,43.06
2024-04-22T18:07:19.800Z,43.01
2024-04-22T18:09:46.837Z,43.38
2024-04-22T18:12:16.847Z,43.44
2024-04-22T18:14:46.946Z,44.05
2024-04-22T18:17:17.986Z,44.59
2024-04-22T18:19:45.138Z,45.15
2024-04-22T18:22:17.848Z,45.65
2024-04-22T18:24:48.803Z,46.17
2024-04-22T18:27:18.515Z,46.41
2024-04-22T18:29:48.590Z,46.86
2024-04-22T18:32:18.275Z,47.24
2024-04-22T18:34:45.361Z,47.90
2024-04-22T18:37:15.068Z,48.22
2024-04-22T18:39:42.051Z,48.48
2024-04-22T18:42:17.718Z,49.16
2024-04-22T18:44:44.970Z,49.32
2024-04-22T18:47:14.922Z,49.61
2024-04-22T18:49:42.286Z,49.76
2024-04-22T18:52:12.069Z,50.22
2024-04-22T18:54:39.101Z,50.75
2024-04-22T18:57:09.502Z,50.86
2024-04-22T18:59:37.570Z,50.96
2024-04-22T19:02:07.717Z,51.44
2024-04-22T19:04:35.084Z,52.11
2024-04-22T19:07:05.540Z,51.95
2024-04-22T19:09:33.090Z,52.15
2024-04-22T19:12:03.125Z,52.89
2024-04-22T19:14:30.430Z,53.12
2024-04-22T19:17:03.248Z,53.34
2024-04-22T19:19:30.768Z,53.53
2024-04-22T19:22:00.566Z,54.06
2024-04-22T19:24:27.824Z,53.97
2024-04-22T19:26:57.666Z,54.23
2024-04-22T19:29:24.706Z,54.26
2024-04-22T19:31:55.012Z,54.49
2024-04-22T19:34:22.575Z,54.75
2024-04-22T19:37:01.874Z,55.06
2024-04-22T19:39:29.412Z,55.64
2024-04-22T19:41:59.878Z,55.61
2024-04-22T19:44:29.945Z,55.26
2024-04-22T19:46:59.732Z,56.18
2024-04-22T19:49:26.790Z,56.29
2024-04-22T19:51:56.485Z,56.45
2024-04-22T19:54:23.473Z,56.47
2024-04-22T19:56:53.292Z,57.06
2024-04-22T19:59:20.328Z,57.07
2024-04-22T20:01:50.409Z,57.13
2024-04-22T20:04:20.498Z,57.23
2024-04-22T20:06:53.191Z,57.22
2024-04-22T20:09:20.647Z,57.29
2024-04-22T20:11:50.718Z,57.48
2024-04-22T20:14:17.757Z,58.05
2024-04-22T20:17:11.219Z,57.99
2024-04-22T20:19:40.941Z,58.44
2024-04-22T20:22:10.990Z,58.34
2024-04-22T20:24:38.149Z,58.35
2024-04-22T20:27:11.382Z,58.53
2024-04-22T20:29:42.684Z,58.92
2024-04-22T20:32:18.064Z,59.04
2024-04-22T20:34:49.287Z,59.47
2024-04-22T20:37:19.108Z,59.37
2024-04-22T20:39:46.110Z,59.14
2024-04-22T20:42:18.719Z,59.72
2024-04-22T20:44:48.930Z,59.75
2024-04-22T20:47:20.234Z,59.89
2024-04-22T20:49:51.554Z,60.11
2024-04-22T20:52:21.590Z,60.35
2024-04-22T20:54:48.820Z,59.94
2024-04-22T20:57:18.789Z,60.26
2024-04-22T20:59:45.839Z,60.38
2024-04-22T21:02:15.496Z,60.56
2024-04-22T21:04:42.955Z,61.04
2024-04-22T21:07:18.819Z,60.93
2024-04-22T21:09:46.062Z,60.58
2024-04-22T21:12:17.851Z,60.63
2024-04-22T21:14:44.850Z,61.22
2024-04-22T21:17:14.744Z,61.17
2024-04-22T21:19:41.866Z,61.15
2024-04-22T21:22:11.757Z,61.60
2024-04-22T21:24:39.033Z,61.63
2024-04-22T21:27:09.101Z,61.73
2024-04-22T21:29:36.334Z,61.96
2024-04-22T21:32:06.048Z,62.23
2024-04-22T21:34:33.284Z,62.08
2024-04-22T21:37:03.000Z,62.46
2024-04-22T21:39:30.021Z,62.46
2024-04-22T21:41:59.701Z,62.70
2024-04-22T21:44:27.242Z,62.47
2024-04-22T21:46:58.580Z,62.72
2024-04-22T21:49:27.943Z,62.72
2024-04-22T21:51:57.680Z,62.85
2024-04-22T21:54:24.709Z,62.70
2024-04-22T21:56:54.237Z,63.06
2024-04-22T21:59:58.552Z,63.25
2024-04-22T22:03:05.678Z,63.30
2024-04-22T22:06:10.545Z,63.03
2024-04-22T22:08:40.799Z,63.31
2024-04-22T22:11:07.973Z,63.01
2024-04-22T22:13:37.958Z,63.25
2024-04-22T22:16:05.375Z,63.39
2024-04-22T22:18:35.408Z,63.10
2024-04-22T22:21:02.657Z,63.10
2024-04-22T22:23:32.427Z,63.59
2024-04-22T22:26:02.496Z,63.09
2024-04-22T22:28:33.994Z,63.29
2024-04-22T22:31:00.967Z,63.70
2024-04-22T22:33:30.631Z,63.16
2024-04-22T22:35:57.578Z,63.53
2024-04-22T22:38:27.332Z,63.88
2024-04-22T22:40:56.900Z,63.89
2024-04-22T22:43:26.695Z,63.87
2024-04-22T22:45:53.741Z,63.89
2024-04-22T22:48:23.617Z,64.22
2024-04-22T22:50:50.616Z,63.96
2024-04-22T22:53:20.339Z,63.72
2024-04-22T22:55:47.547Z,63.44
2024-04-22T22:58:17.693Z,63.84
2024-04-22T23:00:44.708Z,63.50
2024-04-22T23:03:17.043Z,63.46
2024-04-22T23:05:44.082Z,63.50
2024-04-22T23:08:13.897Z,63.67
2024-04-22T23:10:41.222Z,64.15
2024-04-22T23:13:11.045Z,64.12
2024-04-22T23:15:38.305Z,64.07
2024-04-22T23:18:08.588Z,64.60
2024-04-22T23:20:35.727Z,64.49
2024-04-22T23:23:05.649Z,65.03
2024-04-22T23:25:32.694Z,64.97
2024-04-22T23:28:02.998Z,65.42
2024-04-22T23:30:30.071Z,65.30
2024-04-22T23:32:59.903Z,65.43
2024-04-22T23:35:27.246Z,65.54
2024-04-22T23:37:56.953Z,65.75
2024-04-22T23:40:24.068Z,65.80
2024-04-22T23:42:54.655Z,65.52
2024-04-22T23:45:21.653Z,65.59
2024-04-22T23:47:53.855Z,65.76
2024-04-22T23:50:20.900Z,65.69
2024-04-22T23:52:50.591Z,65.55
2024-04-22T23:55:17.673Z,65.44
2024-04-22T23:57:47.524Z,65.46
